Time;durP1;ratioP1;P1;durP2;ratioP2;P2;SDS_P1;SDS_P2;PMS_P1;PMS_P2;Temp;Humidity;BMP_temperature;BMP_pressure;BME280_temperature;BME280_humidity;BME280_pressure;Samples;Min_cycle;Max_cycle;Signal;HPM_P1;HPM_P2
2022/06/04 00:01:23;;;;;;;;;;;16.90;92.60;;;;;;5073354;28;20025;-94
2022/06/04 00:03:49;;;;;;;3.15;2.80;;;16.80;93.20;;;;;;5072902;28;20269;-94
2022/06/04 00:06:14;;;;;;;3.45;3.00;;;16.80;93.30;;;;;;5073056;28;20034;-93
2022/06/04 00:08:40;;;;;;;3.40;3.05;;;16.90;93.10;;;;;;5073061;28;20374;-93
2022/06/04 00:16:34;;;;;;;3.38;2.70;;;16.80;93.30;;;;;;5077891;28;20030;-94
2022/06/04 00:19:00;;;;;;;3.53;3.00;;;16.70;93.50;;;;;;5076516;28;20028;-95
2022/06/04 00:21:26;;;;;;;4.15;2.88;;;16.70;93.30;;;;;;5078243;28;20083;-96
2022/06/04 00:23:52;;;;;;;3.10;2.80;;;16.70;93.40;;;;;;5076376;28;20164;-95
2022/06/04 00:26:18;;;;;;;3.25;2.60;;;16.60;93.40;;;;;;5076090;28;20082;-95
2022/06/04 00:28:46;;;;;;;2.97;2.78;;;16.60;93.30;;;;;;5076362;28;20024;-93
2022/06/04 00:31:12;;;;;;;3.25;2.67;;;16.60;93.50;;;;;;5076250;28;20020;-95
2022/06/04 00:33:39;;;;;;;3.08;2.88;;;16.60;93.70;;;;;;5076013;28;20070;-94
2022/06/04 00:36:05;;;;;;;6.13;3.20;;;16.50;93.80;;;;;;5076266;28;20347;-93
2022/06/04 00:38:32;;;;;;;3.20;3.00;;;16.50;93.90;;;;;;5076066;28;20478;-93
2022/06/04 00:41:16;;;;;;;3.00;2.80;;;16.50;93.90;;;;;;5076308;28;20033;-93
2022/06/04 00:44:09;;;;;;;3.30;3.05;;;16.50;94.00;;;;;;5076519;28;20031;-93
2022/06/04 00:46:41;;;;;;;3.63;3.10;;;16.40;94.10;;;;;;5075659;28;20490;-92
2022/06/04 00:49:16;;;;;;;3.05;2.83;;;16.40;94.00;;;;;;5076001;28;20360;-93
2022/06/04 00:51:45;;;;;;;3.75;3.22;;;16.40;94.20;;;;;;5075974;28;20029;-93
2022/06/04 00:54:11;;;;;;;3.33;2.95;;;16.40;94.30;;;;;;5076149;28;20021;-93
2022/06/04 00:57:07;;;;;;;3.22;3.03;;;16.40;94.30;;;;;;5075659;28;20024;-94
2022/06/04 00:59:51;;;;;;;3.35;3.05;;;16.30;94.60;;;;;;5075804;28;20391;-92
2022/06/04 01:02:48;;;;;;;2.80;2.60;;;16.30;94.60;;;;;;5075756;28;20032;-93
2022/06/04 01:05:28;;;;;;;3.80;3.05;;;16.30;94.80;;;;;;5075531;28;20056;-94
2022/06/04 01:08:05;;;;;;;3.50;3.20;;;16.10;95.00;;;;;;5075600;28;20115;-94
2022/06/04 01:10:51;;;;;;;3.05;2.85;;;16.10;95.20;;;;;;5075632;28;20292;-94
2022/06/04 01:13:38;;;;;;;3.10;2.85;;;16.10;95.30;;;;;;5074906;28;20376;-94
2022/06/04 01:16:12;;;;;;;4.18;3.30;;;16.00;95.80;;;;;;5075670;28;20115;-93
2022/06/04 01:19:01;;;;;;;3.40;3.00;;;16.00;95.90;;;;;;5075627;28;20021;-93
2022/06/04 01:22:12;;;;;;;3.45;3.15;;;16.00;95.90;;;;;;5075451;28;20027;-94
2022/06/04 01:24:50;;;;;;;3.60;3.30;;;15.90;96.50;;;;;;5044602;28;20055;-93
2022/06/04 01:27:34;;;;;;;3.30;3.10;;;15.80;96.50;;;;;;5075307;28;20142;-93
2022/06/04 01:30:08;;;;;;;3.42;3.05;;;15.80;96.80;;;;;;5075195;28;20023;-94
2022/06/04 01:33:02;;;;;;;4.30;3.25;;;15.70;97.20;;;;;;5075138;28;20031;-95
2022/06/04 01:35:44;;;;;;;4.15;3.25;;;15.70;97.80;;;;;;5074248;28;20435;-93
2022/06/04 01:38:19;;;;;;;3.70;3.35;;;15.60;98.00;;;;;;5074908;28;20111;-92
2022/06/04 01:41:03;;;;;;;4.45;3.50;;;15.60;98.30;;;;;;5075012;28;20042;-93
2022/06/04 01:43:48;;;;;;;4.07;3.50;;;15.60;98.10;;;;;;5074884;28;20394;-92
2022/06/04 01:46:19;;;;;;;3.75;3.45;;;15.60;98.70;;;;;;5075823;28;20048;-93
2022/06/04 01:48:49;;;;;;;4.00;3.50;;;15.60;98.60;;;;;;5075013;28;20055;-93
2022/06/04 01:51:24;;;;;;;3.75;3.45;;;15.60;98.90;;;;;;5076045;28;20082;-93
2022/06/04 01:53:54;;;;;;;3.63;3.33;;;15.50;98.80;;;;;;5075967;28;20021;-93
2022/06/04 01:56:26;;;;;;;3.83;3.50;;;15.50;99.00;;;;;;5074735;28;20127;-92
2022/06/04 01:59:05;;;;;;;3.63;3.33;;;15.50;99.40;;;;;;5075677;28;20028;-92
2022/06/04 02:01:32;;;;;;;3.67;3.13;;;15.40;99.90;;;;;;5075714;28;20028;-93
2022/06/04 02:04:01;;;;;;;3.53;3.22;;;15.40;99.90;;;;;;5074448;28;20029;-92
2022/06/04 02:07:29;;;;;;;4.72;3.30;;;15.40;99.90;;;;;;5074282;28;20032;-93
2022/06/04 02:09:43;;;;;;;3.70;3.40;;;15.40;99.90;;;;;;5075302;28;20088;-93
2022/06/04 02:12:10;;;;;;;3.53;3.22;;;15.30;99.90;;;;;;5075372;28;20481;-93
2022/06/04 02:14:37;;;;;;;3.78;3.50;;;15.30;99.90;;;;;;5074290;28;20020;-93
2022/06/04 02:17:09;;;;;;;4.20;3.80;;;15.20;99.90;;;;;;5074331;28;20024;-93
2022/06/04 02:19:35;;;;;;;3.47;3.17;;;15.20;99.90;;;;;;5075267;28;20154;-94
2022/06/04 02:22:46;;;;;;;3.83;3.53;;;15.20;99.90;;;;;;5075315;28;20075;-92
2022/06/04 02:25:14;;;;;;;3.40;3.10;;;15.20;99.90;;;;;;5073976;28;20052;-94
2022/06/04 02:27:41;;;;;;;3.55;3.25;;;15.10;99.90;;;;;;5075314;28;20013;-93
2022/06/04 02:30:08;;;;;;;3.42;3.13;;;15.10;99.90;;;;;;5074115;28;20489;-92
2022/06/04 02:32:34;;;;;;;4.97;3.50;;;15.10;99.90;;;;;;5073707;28;20021;-93
2022/06/04 02:35:14;;;;;;;3.80;3.50;;;15.00;99.90;;;;;;5073545;28;20484;-93
2022/06/04 02:38:17;;;;;;;5.22;3.58;;;15.00;99.90;;;;;;5074875;28;20100;-93
2022/06/04 02:40:56;;;;;;;4.00;3.70;;;15.00;99.90;;;;;;5050717;28;20433;-92
2022/06/04 02:43:22;;;;;;;4.05;3.75;;;15.00;99.90;;;;;;5074760;28;20032;-93
2022/06/04 02:45:55;;;;;;;5.95;3.70;;;15.00;99.90;;;;;;5074638;28;20077;-93
2022/06/04 02:48:30;;;;;;;3.83;3.53;;;15.10;99.90;;;;;;5073823;28;20029;-93
2022/06/04 02:50:58;;;;;;;4.03;3.63;;;15.20;99.90;;;;;;5073710;28;20032;-93
2022/06/04 02:53:27;;;;;;;5.93;3.55;;;15.20;99.90;;;;;;5074667;28;20044;-94
2022/06/04 02:56:01;;;;;;;4.70;3.70;;;15.20;99.90;;;;;;5074657;28;20035;-92
2022/06/04 02:58:28;;;;;;;5.55;3.90;;;15.20;99.90;;;;;;5074675;28;20043;-93
2022/06/04 03:00:56;;;;;;;6.25;4.05;;;15.30;99.90;;;;;;5073770;28;20024;-93
2022/06/04 03:03:23;;;;;;;4.30;4.00;;;15.30;99.90;;;;;;5073686;28;20032;-93
2022/06/04 03:06:01;;;;;;;3.95;3.55;;;15.40;99.90;;;;;;5073941;28;20036;-92
2022/06/04 03:08:29;;;;;;;4.18;3.85;;;15.50;99.90;;;;;;5073454;28;20020;-92
2022/06/04 03:10:55;;;;;;;4.63;3.78;;;15.50;99.90;;;;;;5073396;28;20058;-93
2022/06/04 03:13:20;;;;;;;3.83;3.53;;;15.60;99.90;;;;;;5073328;28;20016;-93
2022/06/04 03:15:47;;;;;;;3.97;3.60;;;15.60;99.90;;;;;;5073335;28;20467;-93
2022/06/04 03:18:14;;;;;;;3.83;3.50;;;15.60;99.90;;;;;;5073406;28;20028;-94
2022/06/04 03:20:40;;;;;;;4.18;3.78;;;15.60;99.90;;;;;;5073270;28;20024;-92
2022/06/04 03:23:07;;;;;;;3.45;3.15;;;15.60;99.90;;;;;;5073231;28;20030;-92
2022/06/04 03:25:37;;;;;;;3.42;3.20;;;15.70;99.90;;;;;;5073188;28;20040;-93
2022/06/04 03:28:03;;;;;;;4.55;3.40;;;15.80;99.90;;;;;;5073212;28;20090;-92
2022/06/04 03:30:29;;;;;;;3.70;3.40;;;15.80;99.90;;;;;;5073309;28;20025;-92
2022/06/04 03:32:55;;;;;;;3.45;3.15;;;15.90;99.90;;;;;;5073298;28;20028;-94
2022/06/04 03:35:22;;;;;;;3.67;3.38;;;16.00;99.90;;;;;;5073403;28;20030;-93
2022/06/04 03:37:48;;;;;;;4.38;3.28;;;16.00;99.90;;;;;;5073276;28;20025;-93
2022/06/04 03:40:14;;;;;;;3.30;3.00;;;16.00;99.90;;;;;;5073262;28;20028;-92
2022/06/04 03:42:40;;;;;;;3.60;3.30;;;16.10;99.90;;;;;;5073388;28;20073;-93
2022/06/04 03:45:08;;;;;;;3.65;3.35;;;16.20;99.90;;;;;;5073101;28;20028;-93
2022/06/04 03:47:36;;;;;;;3.58;3.28;;;16.20;99.90;;;;;;5074735;28;20028;-92
2022/06/04 03:50:07;;;;;;;3.40;3.10;;;16.30;99.90;;;;;;5077094;28;20025;-92
2022/06/04 03:52:32;;;;;;;3.30;3.03;;;16.40;99.90;;;;;;5076836;28;20025;-92
2022/06/04 03:54:58;;;;;;;3.90;3.20;;;16.40;99.90;;;;;;5077022;28;20032;-93
2022/06/04 03:57:41;;;;;;;2.95;2.75;;;16.50;99.90;;;;;;5076979;28;20024;-92
2022/06/04 04:00:10;;;;;;;3.58;3.15;;;16.50;99.90;;;;;;5076886;28;20112;-92
2022/06/04 04:02:37;;;;;;;3.33;3.10;;;16.60;99.90;;;;;;5076871;28;20421;-93
2022/06/04 04:05:06;;;;;;;3.70;3.38;;;16.70;99.90;;;;;;5077310;28;20043;-92
2022/06/04 04:07:32;;;;;;;3.47;3.17;;;16.80;99.90;;;;;;5076688;28;20105;-93
2022/06/04 04:09:58;;;;;;;3.63;3.22;;;16.80;99.90;;;;;;5076702;28;20031;-93
2022/06/04 04:12:24;;;;;;;5.10;3.28;;;16.90;99.90;;;;;;5076786;28;20024;-92
2022/06/04 04:14:50;;;;;;;4.65;3.47;;;17.00;99.90;;;;;;5076877;28;20025;-92
2022/06/04 04:17:15;;;;;;;7.90;3.10;;;17.10;99.90;;;;;;5076470;28;20158;-92
2022/06/04 04:19:41;;;;;;;3.35;3.05;;;17.20;99.60;;;;;;5076573;28;20024;-92
2022/06/04 04:22:07;;;;;;;3.42;3.13;;;17.30;99.70;;;;;;5076305;28;20077;-92
2022/06/04 04:24:32;;;;;;;4.45;2.85;;;17.40;98.40;;;;;;5076261;28;20028;-92
2022/06/04 04:26:58;;;;;;;4.28;3.13;;;17.50;98.60;;;;;;5076118;28;20398;-93
2022/06/04 04:29:24;;;;;;;6.00;3.20;;;17.60;98.30;;;;;;5076375;28;20027;-91
2022/06/04 04:31:49;;;;;;;3.30;3.10;;;17.70;98.00;;;;;;5076126;28;20021;-91
2022/06/04 04:34:15;;;;;;;4.15;3.10;;;17.80;97.20;;;;;;5075990;28;20028;-92
2022/06/04 04:36:41;;;;;;;4.93;3.28;;;17.90;97.30;;;;;;5076180;28;20029;-91
2022/06/04 04:39:06;;;;;;;3.67;2.78;;;18.00;96.60;;;;;;5076027;28;20025;-92
2022/06/04 04:41:32;;;;;;;4.07;3.10;;;18.10;97.30;;;;;;5076126;28;20133;-90
2022/06/04 04:43:58;;;;;;;3.72;2.90;;;18.30;96.70;;;;;;5075957;28;20115;-91
2022/06/04 04:46:24;;;;;;;4.03;2.60;;;18.40;96.70;;;;;;5075975;28;20025;-91
2022/06/04 18:01:47;;;;;;;9.68;5.57;;;20.20;67.60;;;;;;5145511;27;20423;-93
2022/06/04 18:04:13;;;;;;;6.57;5.40;;;19.70;67.60;;;;;;5111147;28;20028;-92
2022/06/04 18:06:38;;;;;;;7.28;5.38;;;19.60;68.90;;;;;;5128625;28;20050;-91
2022/06/04 18:09:04;;;;;;;6.43;5.57;;;19.50;69.90;;;;;;5128628;28;20026;-95
2022/06/04 18:11:30;;;;;;;14.90;9.13;;;19.40;71.00;;;;;;5128842;28;20034;-92
2022/06/04 18:13:56;;;;;;;12.27;9.25;;;19.50;71.30;;;;;;5128040;28;20028;-92
2022/06/04 18:16:22;;;;;;;39.92;26.20;;;19.40;71.60;;;;;;5128458;28;20370;-93
2022/06/04 18:18:48;;;;;;;24.80;18.08;;;19.40;71.90;;;;;;5127980;28;20020;-94
2022/06/04 18:21:16;;;;;;;25.63;16.33;;;19.50;72.30;;;;;;5127878;28;20039;-92
2022/06/04 18:23:43;;;;;;;26.25;16.00;;;19.40;72.60;;;;;;5127842;28;20048;-90
2022/06/04 18:26:11;;;;;;;27.48;15.45;;;19.40;72.90;;;;;;5127881;28;20016;-90
2022/06/04 18:28:39;;;;;;;44.63;26.90;;;19.40;73.10;;;;;;5127735;28;20093;-92
2022/06/04 18:31:21;;;;;;;38.45;26.35;;;19.40;73.40;;;;;;5127248;28;20474;-91
2022/06/04 18:33:49;;;;;;;39.53;23.20;;;19.30;73.70;;;;;;5127471;28;20115;-92
2022/06/04 18:36:17;;;;;;;39.38;23.85;;;19.30;74.00;;;;;;5127289;28;20028;-92
2022/06/04 18:38:43;;;;;;;36.90;22.67;;;19.20;74.20;;;;;;5127462;28;20024;-92
2022/06/04 18:41:11;;;;;;;37.75;21.60;;;19.20;74.50;;;;;;5127761;28;20035;-91
2022/06/04 18:54:43;;;;;;;42.90;20.40;;;18.90;78.00;;;;;;5111562;28;20031;-92
2022/06/04 18:57:10;;;;;;;35.60;20.35;;;18.80;78.60;;;;;;5110401;28;20034;-91
2022/06/04 18:59:37;;;;;;;35.00;20.10;;;18.80;79.10;;;;;;5108403;28;20166;-90
2022/06/04 19:02:03;;;;;;;30.70;17.70;;;18.80;79.20;;;;;;5114312;28;20022;-90
2022/06/04 19:04:29;;;;;;;43.47;19.90;;;18.80;80.00;;;;;;5116702;28;20458;-91
2022/06/04 19:06:57;;;;;;;30.83;18.25;;;18.80;81.00;;;;;;5115864;28;20027;-91
2022/06/04 19:09:24;;;;;;;30.73;16.48;;;18.80;81.30;;;;;;5116409;28;20046;-92
2022/06/04 19:14:34;;;;;;;25.48;16.85;;;18.70;82.50;;;;;;5096974;28;20031;-90
2022/06/04 19:17:01;;;;;;;26.17;15.25;;;18.70;82.20;;;;;;5100693;28;20072;-93
2022/06/04 19:19:28;;;;;;;24.13;15.07;;;18.60;82.50;;;;;;5101974;28;20027;-92
2022/06/04 19:24:48;;;;;;;24.65;14.30;;;18.40;83.20;;;;;;5100559;28;20066;-93
2022/06/04 19:27:21;;;;;;;22.80;12.77;;;18.40;84.10;;;;;;5095527;28;20046;-91
2022/06/04 19:30:02;;;;;;;24.08;12.93;;;18.30;84.50;;;;;;5095287;28;20082;-92
2022/06/04 19:32:28;;;;;;;18.42;11.20;;;18.20;85.70;;;;;;5096049;28;20024;-92
2022/06/04 19:34:55;;;;;;;17.63;10.48;;;18.20;86.20;;;;;;5095017;28;20481;-91
2022/06/04 19:37:22;;;;;;;19.40;10.43;;;18.10;86.80;;;;;;5094116;28;20049;-92
2022/06/04 19:39:48;;;;;;;15.07;9.57;;;18.00;87.40;;;;;;5095178;28;20032;-92
2022/06/04 19:42:15;;;;;;;12.05;7.60;;;18.00;88.80;;;;;;5094668;28;20529;-90
2022/06/04 19:44:41;;;;;;;13.82;8.18;;;18.00;88.80;;;;;;5095102;28;20154;-91
2022/06/04 19:47:09;;;;;;;12.45;7.32;;;18.00;89.40;;;;;;5096227;28;20020;-92
2022/06/04 19:49:43;;;;;;;8.35;6.20;;;17.90;90.00;;;;;;5095235;28;20016;-92
2022/06/04 19:52:13;;;;;;;5.10;3.55;;;17.90;90.30;;;;;;5095055;28;20030;-92
2022/06/04 19:57:23;;;;;;;6.63;3.30;;;18.00;88.30;;;;;;5095996;28;20275;-92
2022/06/04 19:59:50;;;;;;;6.20;3.25;;;18.20;88.60;;;;;;5094068;28;20044;-92
2022/06/04 20:02:17;;;;;;;7.93;3.08;;;18.30;88.10;;;;;;5092694;28;20058;-92
2022/06/04 20:04:43;;;;;;;2.95;2.70;;;18.30;87.60;;;;;;5093506;28;20493;-92
2022/06/04 20:07:12;;;;;;;2.85;2.65;;;18.40;87.00;;;;;;5096007;28;20027;-92
2022/06/04 20:09:37;;;;;;;2.75;2.53;;;18.40;87.00;;;;;;5094681;28;20112;-92
2022/06/04 20:12:03;;;;;;;6.15;2.63;;;18.40;86.50;;;;;;5094589;28;20044;-92
2022/06/04 20:14:31;;;;;;;2.70;2.47;;;18.40;85.80;;;;;;5094691;28;20027;-92
2022/06/04 20:16:57;;;;;;;3.42;2.40;;;18.40;86.30;;;;;;5094586;28;20024;-91
2022/06/04 20:19:22;;;;;;;2.55;2.20;;;18.40;86.20;;;;;;5094804;28;20028;-92
2022/06/04 20:21:48;;;;;;;3.83;2.70;;;18.40;86.60;;;;;;5094774;28;20023;-93
2022/06/04 20:24:15;;;;;;;2.60;2.40;;;18.30;88.30;;;;;;5093860;28;20020;-92
2022/06/04 20:26:41;;;;;;;2.92;2.60;;;18.20;87.80;;;;;;5094619;28;20030;-92
2022/06/04 20:29:07;;;;;;;2.85;2.30;;;18.20;87.90;;;;;;5094684;28;20115;-92
2022/06/04 20:31:32;;;;;;;2.30;2.20;;;18.10;88.00;;;;;;5094548;28;20478;-92
2022/06/04 20:33:58;;;;;;;3.05;2.75;;;18.10;88.60;;;;;;5095137;28;20024;-92
2022/06/04 20:36:24;;;;;;;6.15;2.70;;;18.00;88.90;;;;;;5093757;28;20623;-92
2022/06/04 20:38:50;;;;;;;3.00;2.53;;;18.00;90.00;;;;;;5094613;28;20051;-92
2022/06/04 20:41:26;;;;;;;4.18;2.70;;;18.00;89.90;;;;;;5093731;28;20437;-92
2022/06/04 20:43:54;;;;;;;3.25;2.50;;;17.90;90.50;;;;;;5094285;28;20462;-93
2022/06/04 20:46:30;;;;;;;4.38;2.67;;;17.90;90.50;;;;;;5093955;28;20020;-92
2022/06/04 20:48:57;;;;;;;6.93;2.83;;;18.00;90.60;;;;;;5092860;28;20024;-92
2022/06/04 20:51:25;;;;;;;6.63;3.63;;;18.00;90.80;;;;;;5092778;28;20032;-92
2022/06/04 20:53:52;;;;;;;4.32;2.88;;;18.00;90.60;;;;;;5093405;28;20031;-92
2022/06/04 20:56:24;;;;;;;2.80;2.60;;;17.90;90.60;;;;;;5092835;28;20555;-92
2022/06/04 20:58:51;;;;;;;3.90;2.67;;;17.90;90.70;;;;;;5094486;28;20032;-92
2022/06/04 21:01:17;;;;;;;3.65;2.85;;;18.00;91.00;;;;;;5093239;28;20052;-92
2022/06/04 21:03:43;;;;;;;4.80;3.00;;;18.00;90.80;;;;;;5093482;28;20020;-92
2022/06/04 21:06:16;;;;;;;5.57;3.10;;;18.10;91.00;;;;;;5093781;28;20024;-91
2022/06/04 21:08:42;;;;;;;4.63;2.90;;;18.10;91.10;;;;;;5093747;28;20099;-92
2022/06/04 21:11:12;;;;;;;3.00;2.70;;;18.10;91.20;;;;;;5094056;28;20428;-92
2022/06/04 21:13:38;;;;;;;4.43;2.87;;;18.20;90.30;;;;;;5081103;28;20432;-92
2022/06/04 21:16:12;;;;;;;6.13;2.80;;;18.20;90.10;;;;;;5073426;28;20249;-92
2022/06/04 21:18:38;;;;;;;3.15;2.78;;;18.30;90.20;;;;;;5075668;28;20032;-92
2022/06/04 21:21:07;;;;;;;4.43;3.10;;;18.30;90.20;;;;;;5073475;28;20382;-92
2022/06/04 21:23:34;;;;;;;4.75;3.60;;;18.30;90.00;;;;;;5073421;28;20029;-91
2022/06/04 21:25:59;;;;;;;4.75;2.90;;;18.30;90.40;;;;;;5073342;28;20752;-91
2022/06/04 21:28:25;;;;;;;7.68;3.80;;;18.30;90.30;;;;;;5073377;28;20056;-92
2022/06/04 21:30:51;;;;;;;6.25;3.65;;;18.30;89.80;;;;;;5073371;28;20037;-91
2022/06/04 21:33:17;;;;;;;7.03;4.30;;;18.40;90.00;;;;;;5073286;28;20032;-92
2022/06/04 21:38:36;;;;;;;8.50;3.53;;;18.50;86.70;;;;;;5073166;28;20034;-92
2022/06/04 21:41:02;;;;;;;6.43;3.33;;;18.60;86.10;;;;;;5073158;28;20024;-92
2022/06/04 21:43:28;;;;;;;4.60;3.00;;;18.60;85.80;;;;;;5072398;28;20021;-91
2022/06/04 21:45:54;;;;;;;10.35;3.28;;;18.70;85.60;;;;;;5072344;28;20028;-92
2022/06/04 21:48:20;;;;;;;4.72;3.15;;;18.80;85.20;;;;;;5071540;28;20081;-92
2022/06/04 21:50:47;;;;;;;7.15;3.03;;;18.70;84.90;;;;;;5073342;28;20032;-92
2022/06/04 21:53:13;;;;;;;5.43;3.17;;;18.70;85.70;;;;;;5072856;28;20127;-92
2022/06/04 21:55:41;;;;;;;11.43;5.75;;;18.70;85.60;;;;;;5072829;28;20025;-92
2022/06/04 21:58:08;;;;;;;6.82;4.03;;;18.70;85.50;;;;;;5072893;28;20090;-92
2022/06/04 22:00:34;;;;;;;5.28;3.35;;;18.70;84.80;;;;;;5072434;28;20178;-91
2022/06/04 22:03:01;;;;;;;6.72;3.88;;;18.70;84.30;;;;;;5074074;28;20103;-92
2022/06/04 22:05:27;;;;;;;11.90;3.42;;;18.70;84.50;;;;;;5072880;28;20098;-92
2022/06/04 22:07:54;;;;;;;4.95;2.78;;;18.70;84.80;;;;;;5073429;28;20475;-91
2022/06/04 22:10:22;;;;;;;4.75;3.05;;;18.70;84.10;;;;;;5072579;28;20502;-93
2022/06/04 22:12:49;;;;;;;6.70;3.90;;;18.60;84.30;;;;;;5072022;28;20501;-92
2022/06/04 22:15:17;;;;;;;7.00;3.88;;;18.60;84.40;;;;;;5073734;28;20032;-92
2022/06/04 22:17:43;;;;;;;7.50;4.00;;;18.60;84.60;;;;;;5072376;28;20021;-92
2022/06/04 22:20:11;;;;;;;7.57;4.05;;;18.50;84.90;;;;;;5073766;28;20031;-92
2022/06/04 22:22:37;;;;;;;4.35;3.45;;;18.40;85.10;;;;;;5072865;28;20048;-92
2022/06/04 22:25:05;;;;;;;5.13;3.35;;;18.30;85.50;;;;;;5072535;28;20032;-92
2022/06/04 22:27:30;;;;;;;3.95;2.80;;;18.20;86.30;;;;;;5072538;28;20024;-93
2022/06/04 22:30:00;;;;;;;3.45;2.80;;;18.10;85.70;;;;;;5072896;28;20025;-92
2022/06/04 22:32:27;;;;;;;7.38;3.15;;;18.10;85.50;;;;;;5072830;28;20033;-93
2022/06/04 22:34:53;;;;;;;6.35;3.25;;;18.10;85.70;;;;;;5073666;28;20028;-92
2022/06/04 22:37:19;;;;;;;5.07;2.78;;;18.10;86.00;;;;;;5072296;28;20024;-92
2022/06/04 22:39:46;;;;;;;4.45;3.03;;;18.00;86.10;;;;;;5073445;28;20025;-92
2022/06/04 22:42:12;;;;;;;8.82;4.10;;;18.00;86.70;;;;;;5072317;28;20025;-93
2022/06/04 22:44:39;;;;;;;6.45;3.55;;;18.10;86.50;;;;;;5072039;28;20021;-92
2022/06/04 22:47:05;;;;;;;4.70;3.10;;;18.10;86.40;;;;;;5073618;28;20047;-92
2022/06/04 22:49:31;;;;;;;9.18;3.15;;;18.10;86.60;;;;;;5075675;28;20025;-92
2022/06/04 22:51:57;;;;;;;2.63;2.40;;;18.00;87.10;;;;;;5075196;28;20024;-91
2022/06/04 22:54:28;;;;;;;5.10;2.50;;;18.00;86.60;;;;;;5075299;28;20045;-92
2022/06/04 22:56:57;;;;;;;4.43;2.40;;;17.90;86.60;;;;;;5074659;28;20017;-92
2022/06/04 22:59:22;;;;;;;4.82;2.53;;;17.90;87.00;;;;;;5075197;28;20012;-92
2022/06/04 23:01:49;;;;;;;3.70;2.38;;;17.90;87.10;;;;;;5075710;28;20102;-91
2022/06/04 23:04:17;;;;;;;3.85;2.25;;;17.80;88.00;;;;;;5074840;28;20028;-93
2022/06/04 23:06:44;;;;;;;3.38;2.25;;;17.80;88.50;;;;;;5075663;28;20382;-92
2022/06/04 23:09:11;;;;;;;6.20;2.45;;;17.80;88.30;;;;;;5075358;28;20107;-92
